Time;durP1;ratioP1;P1;durP2;ratioP2;P2;SDS_P1;SDS_P2;PMS_P1;PMS_P2;Temp;Humidity;BMP_temperature;BMP_pressure;BME280_temperature;BME280_humidity;BME280_pressure;Samples;Min_cycle;Max_cycle;Signal;HPM_P1;HPM_P2
2022/12/30 00:01:33;;;;;;;;;8.50;6.50;;;;;2.95;82.34;98273.28;4922873;28;101743;-77
2022/12/30 00:04:00;;;;;;;;;9.25;7.50;;;;;2.90;83.19;98266.75;4909493;28;101774;-78
2022/12/30 00:06:27;;;;;;;;;5.00;2.75;;;;;2.87;83.94;98259.91;4911135;28;103382;-77
2022/12/30 00:08:57;;;;;;;;;3.00;3.00;;;;;2.87;83.12;98261.72;4924871;28;101789;-78
2022/12/30 00:11:28;;;;;;;;;11.00;5.00;;;;;2.70;82.33;98240.28;4907733;28;101709;-77
2022/12/30 00:33:57;;;;;;;;;6.50;5.00;;;;;2.59;84.94;98245.94;4922002;28;101600;-77
2022/12/30 00:36:26;;;;;;;;;13.75;11.00;;;;;2.44;85.10;98231.50;4923434;28;102672;-77
2022/12/30 00:38:54;;;;;;;;;10.75;10.00;;;;;2.49;84.41;98245.22;4926765;28;103365;-76
2022/12/30 00:44:06;;;;;;;;;7.25;6.75;;;;;2.42;85.28;98222.00;4926424;28;101878;-77
2022/12/30 00:46:35;;;;;;;;;6.00;5.00;;;;;2.51;85.08;98232.56;4918539;28;102087;-77
2022/12/30 00:57:19;;;;;;;;;6.00;6.00;;;;;2.64;84.78;98227.63;4909670;28;101618;-77
2022/12/30 00:59:46;;;;;;;;;3.00;2.25;;;;;2.58;84.98;98222.91;4913201;28;103370;-76
2022/12/30 01:02:13;;;;;;;;;6.50;5.75;;;;;2.57;85.06;98225.72;4922350;28;104529;-77
2022/12/30 01:04:40;;;;;;;;;14.00;10.00;;;;;2.54;85.03;98229.56;4920712;28;101651;-77
2022/12/30 01:07:07;;;;;;;;;15.75;11.25;;;;;2.47;85.13;98217.88;4907508;28;101980;-77
2022/12/30 01:09:35;;;;;;;;;10.50;7.00;;;;;2.43;84.68;98218.34;4917247;28;103344;-77
2022/12/30 01:12:09;;;;;;;;;9.50;6.50;;;;;2.56;84.46;98248.94;4915656;28;101630;-77
2022/12/30 01:14:47;;;;;;;;;6.50;6.50;;;;;2.25;85.05;98197.88;4923992;28;101717;-77
2022/12/30 01:17:18;;;;;;;;;6.25;5.25;;;;;2.49;86.05;98223.03;4919862;28;101905;-77
2022/12/30 01:19:45;;;;;;;;;5.00;5.00;;;;;2.52;86.03;98238.72;4912121;28;103396;-77
2022/12/30 01:22:13;;;;;;;;;5.00;5.00;;;;;2.52;85.86;98241.41;4914113;28;101659;-77
2022/12/30 01:24:40;;;;;;;;;8.25;6.00;;;;;2.47;85.58;98231.22;4919484;28;102062;-77
2022/12/30 01:27:07;;;;;;;;;8.00;7.00;;;;;2.42;86.05;98220.16;4914500;28;102008;-77
2022/12/30 01:29:37;;;;;;;;;5.50;5.50;;;;;2.49;85.41;98239.88;4913103;28;103730;-76
2022/12/30 01:32:06;;;;;;;;;5.00;3.00;;;;;2.52;85.64;98244.88;4920038;28;102678;-78
2022/12/30 01:34:34;;;;;;;;;5.00;4.00;;;;;2.44;85.17;98228.84;4924966;28;101556;-77
2022/12/30 01:37:01;;;;;;;;;4.50;2.75;;;;;2.52;85.66;98238.72;4916054;28;101473;-77
2022/12/30 01:39:29;;;;;;;;;3.50;2.00;;;;;2.54;85.80;98242.91;4909727;28;103356;-77
2022/12/30 01:41:56;;;;;;;;;3.00;3.00;;;;;2.57;85.98;98236.41;4921653;28;102982;-77
2022/12/30 01:44:48;;;;;;;;;8.00;5.00;;;;;2.58;85.68;98236.25;4911027;28;101839;-75
2022/12/30 01:47:22;;;;;;;;;4.00;3.00;;;;;2.60;85.73;98236.94;4913963;28;101929;-77
2022/12/30 01:49:53;;;;;;;;;7.00;5.50;;;;;2.64;85.90;98238.28;4911940;28;108008;-77
2022/12/30 01:52:24;;;;;;;;;5.75;4.50;;;;;2.62;86.13;98226.91;4886843;28;101591;-77
2022/12/30 01:54:56;;;;;;;;;6.25;6.00;;;;;2.70;85.99;98232.28;4914285;28;101843;-77
2022/12/30 01:57:24;;;;;;;;;6.75;3.00;;;;;2.73;85.24;98232.97;4919865;28;101948;-77
2022/12/30 01:59:52;;;;;;;;;12.50;9.75;;;;;2.68;85.25;98244.97;4931032;28;103339;-77
2022/12/30 02:02:19;;;;;;;;;26.25;24.00;;;;;2.61;86.52;98245.78;4929671;28;101493;-77
2022/12/30 02:04:47;;;;;;;;;22.50;19.25;;;;;2.61;85.99;98243.13;4925024;28;101866;-78
2022/12/30 02:07:25;;;;;;;;;15.00;12.75;;;;;2.64;85.45;98246.28;4920388;28;101812;-79
2022/12/30 02:10:05;;;;;;;;;21.50;18.25;;;;;2.51;85.77;98224.56;4924314;28;108106;-77
2022/12/30 02:12:49;;;;;;;;;37.67;31.67;;;;;2.46;86.27;98245.53;4909233;28;101739;-77
2022/12/30 02:15:39;;;;;;;;;24.00;18.50;;;;;2.53;85.71;98251.06;4918900;28;101764;-77
2022/12/30 02:18:30;;;;;;;;;17.25;17.00;;;;;2.51;86.31;98242.38;4919002;28;101830;-78
2022/12/30 02:21:46;;;;;;;;;29.50;23.50;;;;;2.43;87.13;98245.03;4916225;28;107879;-77
2022/12/30 02:24:55;;;;;;;;;49.33;40.67;;;;;2.32;88.74;98266.63;4907363;28;101836;-77
2022/12/30 02:27:51;;;;;;;;;44.33;36.00;;;;;2.20;88.86;98263.38;4900316;28;101545;-78
2022/12/30 02:30:57;;;;;;;;;30.00;27.25;;;;;2.30;88.14;98265.97;4913709;28;101985;-78
2022/12/30 02:33:44;;;;;;;;;30.33;27.00;;;;;2.32;88.52;98267.47;4890075;28;107779;-77
2022/12/30 02:36:39;;;;;;;;;18.75;15.00;;;;;2.37;88.14;98267.81;4915551;28;101869;-77
2022/12/30 02:39:15;;;;;;;;;34.75;22.25;;;;;2.31;86.57;98252.44;4909697;28;101437;-77
2022/12/30 02:45:11;;;;;;;;;17.25;13.50;;;;;2.32;86.07;98254.13;4912192;28;107933;-77
2022/12/30 02:47:44;;;;;;;;;6.75;6.00;;;;;2.31;86.45;98255.09;4914419;28;101784;-78
2022/12/30 02:53:23;;;;;;;;;6.25;5.00;;;;;2.28;86.21;98250.09;4923438;28;101834;-77
2022/12/30 02:55:51;;;;;;;;;6.25;4.50;;;;;2.18;86.01;98238.69;4924397;28;103378;-77
2022/12/30 02:58:19;;;;;;;;;5.50;3.50;;;;;2.14;86.89;98240.84;4916487;28;101980;-78
2022/12/30 03:04:30;;;;;;;;;8.00;3.00;;;;;2.26;86.25;98257.41;4911060;28;101945;-77
2022/12/30 03:07:22;;;;;;;;;22.75;18.25;;;;;2.23;88.15;98263.06;4901926;28;108031;-77
2022/12/30 03:13:18;;;;;;;;;23.25;21.25;;;;;2.18;88.85;98268.88;4868998;28;103277;-77
2022/12/30 03:15:59;;;;;;;;;21.00;17.75;;;;;2.09;87.91;98245.81;4912590;28;102036;-77
2022/12/30 03:18:28;;;;;;;;;11.75;11.25;;;;;2.32;88.24;98277.28;4920482;28;107829;-77
2022/12/30 03:20:55;;;;;;;;;22.00;14.00;;;;;2.33;88.82;98281.63;4908664;28;101751;-77
2022/12/30 03:29:00;;;;;;;;;15.75;13.50;;;;;2.34;87.00;98299.31;4923739;28;107985;-77
2022/12/30 03:31:27;;;;;;;;;18.75;15.00;;;;;2.01;88.55;98245.75;4921660;28;101712;-76
2022/12/30 03:33:54;;;;;;;;;13.25;11.25;;;;;2.29;87.64;98289.13;4913567;28;101888;-78
2022/12/30 03:36:27;;;;;;;;;13.75;9.50;;;;;2.12;87.67;98258.81;4913167;28;102052;-77
2022/12/30 03:39:05;;;;;;;;;28.00;22.25;;;;;2.17;88.40;98280.53;4911665;28;107508;-77
2022/12/30 03:41:34;;;;;;;;;16.00;14.00;;;;;2.23;88.32;98287.06;4921966;28;101789;-78
2022/12/30 03:44:01;;;;;;;;;20.50;14.25;;;;;1.98;88.44;98250.56;4923254;28;101482;-77
2022/12/30 03:46:33;;;;;;;;;18.75;16.00;;;;;2.22;88.59;98298.72;4924027;28;101658;-78
2022/12/30 03:49:00;;;;;;;;;16.50;11.00;;;;;2.21;88.97;98305.03;4900858;28;103495;-77
2022/12/30 03:51:27;;;;;;;;;12.25;11.00;;;;;2.14;88.66;98307.50;4911228;28;101954;-76
2022/12/30 03:53:54;;;;;;;;;10.75;9.00;;;;;2.15;88.54;98311.03;4906395;28;101490;-78
2022/12/30 03:56:21;;;;;;;;;14.50;10.50;;;;;2.20;89.37;98325.56;4913441;28;101825;-78
2022/12/30 03:58:48;;;;;;;;;9.50;8.50;;;;;2.24;89.00;98321.59;4913818;28;103275;-78
2022/12/30 04:01:15;;;;;;;;;9.50;9.00;;;;;2.28;88.31;98324.78;4911959;28;103214;-78
2022/12/30 04:03:42;;;;;;;;;14.75;10.75;;;;;2.27;89.29;98327.59;4895459;28;101947;-77
2022/12/30 04:06:09;;;;;;;;;39.33;32.33;;;;;2.36;88.82;98324.84;4901711;28;101959;-77
2022/12/30 04:08:36;;;;;;;;;31.33;27.33;;;;;2.45;88.38;98323.91;4915893;28;103529;-78
2022/12/30 04:11:03;;;;;;;;;27.67;23.00;;;;;2.55;87.75;98319.31;4919112;28;101609;-77
2022/12/30 04:13:30;;;;;;;;;19.00;17.50;;;;;2.75;87.77;98337.78;4897258;28;102124;-78
2022/12/30 04:15:57;;;;;;;;;15.50;11.75;;;;;2.75;87.04;98317.22;4919428;28;101862;-77
2022/12/30 04:18:24;;;;;;;;;12.75;12.25;;;;;2.95;87.12;98334.69;4912896;28;103719;-78
2022/12/30 04:20:51;;;;;;;;;17.00;12.00;;;;;3.03;85.61;98333.88;4919758;28;101912;-77
2022/12/30 04:23:18;;;;;;;;;7.50;7.50;;;;;3.08;85.57;98336.91;4926059;28;101914;-78
2022/12/30 04:25:45;;;;;;;;;7.25;7.00;;;;;3.01;85.47;98323.38;4921269;28;101688;-78
2022/12/30 04:28:12;;;;;;;;;11.75;7.00;;;;;3.22;85.43;98349.66;4921692;28;103694;-78
2022/12/30 04:30:39;;;;;;;;;6.75;6.00;;;;;3.27;84.59;98347.34;4910317;28;101836;-77
2022/12/30 04:33:06;;;;;;;;;2.00;2.00;;;;;3.33;84.34;98348.56;4913490;28;101987;-78
2022/12/30 04:35:33;;;;;;;;;6.75;5.50;;;;;3.31;84.05;98340.69;4912169;28;101833;-77
2022/12/30 04:38:00;;;;;;;;;5.50;3.00;;;;;3.40;84.60;98350.41;4896953;28;103959;-77
2022/12/30 04:40:27;;;;;;;;;5.75;2.50;;;;;3.44;83.65;98353.59;4917960;28;102378;-76
2022/12/30 04:42:54;;;;;;;;;6.25;4.50;;;;;3.46;83.98;98348.94;4926562;28;101663;-78
2022/12/30 04:45:21;;;;;;;;;2.00;2.00;;;;;3.41;83.24;98349.41;4922881;28;101952;-77
2022/12/30 04:47:48;;;;;;;;;4.00;3.00;;;;;3.52;83.88;98356.28;4920363;28;103350;-77
2022/12/30 04:50:15;;;;;;;;;5.00;4.50;;;;;3.39;83.34;98338.03;4919620;28;101791;-77
2022/12/30 04:52:41;;;;;;;;;3.00;3.00;;;;;3.54;83.29;98357.81;4912774;28;104247;-78
2022/12/30 04:55:09;;;;;;;;;4.00;3.00;;;;;3.57;83.54;98357.47;4927829;28;101647;-77
2022/12/30 04:57:35;;;;;;;;;4.50;2.75;;;;;3.59;83.95;98366.19;4925307;28;103511;-77
2022/12/30 05:00:05;;;;;;;;;2.00;2.00;;;;;3.33;83.73;98316.50;4926333;28;101558;-77
2022/12/30 05:02:32;;;;;;;;;9.00;6.00;;;;;3.59;83.81;98350.13;4925787;28;101563;-77
2022/12/30 05:04:59;;;;;;;;;4.50;2.50;;;;;3.60;83.25;98341.09;4916087;28;101614;-77
2022/12/30 05:07:26;;;;;;;;;7.00;5.00;;;;;3.70;83.82;98358.81;4918315;28;103593;-77
2022/12/30 05:09:53;;;;;;;;;5.75;5.25;;;;;3.73;83.28;98355.84;4920030;28;101840;-77
2022/12/30 05:12:20;;;;;;;;;7.75;7.00;;;;;3.81;82.85;98371.91;4923006;28;101806;-77
2022/12/30 05:14:47;;;;;;;;;6.75;6.25;;;;;3.71;82.54;98350.66;4921876;28;102003;-77
2022/12/30 05:17:14;;;;;;;;;6.75;6.00;;;;;3.92;81.66;98375.09;4917581;28;103341;-77
2022/12/30 05:19:42;;;;;;;;;12.00;10.75;;;;;3.95;81.97;98374.78;4917090;28;101876;-77
2022/12/30 05:22:09;;;;;;;;;13.25;10.25;;;;;4.04;81.66;98386.31;4919881;28;101711;-77
2022/12/30 05:27:21;;;;;;;;;11.25;10.00;;;;;4.08;81.02;98381.47;4927510;28;103453;-78
2022/12/30 05:29:48;;;;;;;;;12.25;10.00;;;;;4.09;80.94;98386.66;4923015;28;101836;-77
2022/12/30 05:32:15;;;;;;;;;11.25;8.75;;;;;4.22;80.76;98408.41;4932060;28;101471;-77
2022/12/30 05:34:42;;;;;;;;;11.50;10.25;;;;;4.16;80.61;98385.00;4924339;28;103015;-78
2022/12/30 05:37:09;;;;;;;;;12.25;10.00;;;;;4.29;80.22;98412.09;4917629;28;103576;-78
2022/12/30 05:39:35;;;;;;;;;14.75;9.25;;;;;4.24;80.02;98411.75;4916554;28;101836;-78
2022/12/30 05:42:03;;;;;;;;;11.00;10.50;;;;;4.25;80.13;98416.09;4918205;28;101573;-77
2022/12/30 05:44:31;;;;;;;;;14.75;11.50;;;;;4.30;80.33;98421.81;4916020;28;102126;-77
2022/12/30 05:46:58;;;;;;;;;10.25;9.00;;;;;4.32;80.21;98424.31;4919170;28;103962;-78
2022/12/30 05:49:24;;;;;;;;;8.50;8.50;;;;;4.37;80.15;98438.84;4916543;28;102878;-78
2022/12/30 05:51:51;;;;;;;;;8.25;8.00;;;;;4.39;79.87;98438.69;4911511;28;101738;-77
2022/12/30 05:54:18;;;;;;;;;10.00;7.00;;;;;4.35;80.00;98432.00;4926083;28;102190;-77
2022/12/30 05:56:46;;;;;;;;;8.75;8.75;;;;;4.37;80.43;98444.22;4924760;28;103388;-77
2022/12/30 05:59:13;;;;;;;;;8.25;7.00;;;;;4.32;80.77;98435.84;4915922;28;101923;-77
2022/12/30 06:01:40;;;;;;;;;8.00;6.00;;;;;4.38;80.42;98445.91;4913486;28;101780;-77
2022/12/30 06:04:07;;;;;;;;;9.50;8.25;;;;;4.36;81.06;98445.25;4922052;28;102946;-78
2022/12/30 06:06:34;;;;;;;;;11.25;7.00;;;;;4.35;80.65;98446.22;4921891;28;103662;-77
2022/12/30 06:09:02;;;;;;;;;4.75;3.00;;;;;4.30;80.64;98442.38;4919974;28;101842;-77
2022/12/30 06:11:28;;;;;;;;;12.00;8.00;;;;;4.33;81.11;98461.59;4923660;28;101856;-77
2022/12/30 06:13:55;;;;;;;;;10.00;9.00;;;;;4.22;81.44;98445.88;4921291;28;101726;-77
2022/12/30 06:16:22;;;;;;;;;14.75;7.75;;;;;4.33;81.57;98466.97;4918025;28;107912;-78
2022/12/30 06:18:49;;;;;;;;;13.00;9.25;;;;;4.33;80.80;98475.00;4915446;28;101827;-77
2022/12/30 06:21:16;;;;;;;;;11.00;11.00;;;;;4.32;81.23;98467.16;4928520;28;102826;-77
2022/12/30 06:23:43;;;;;;;;;12.75;11.00;;;;;4.26;81.45;98463.28;4923986;28;101744;-77
2022/12/30 06:26:10;;;;;;;;;14.25;12.00;;;;;4.31;81.06;98477.00;4915111;28;103344;-77
2022/12/30 06:28:37;;;;;;;;;15.00;11.75;;;;;4.24;81.29;98462.59;4921582;28;103415;-77
2022/12/30 06:31:04;;;;;;;;;9.00;6.25;;;;;4.37;80.99;98480.84;4919696;28;101582;-77
2022/12/30 06:33:32;;;;;;;;;11.00;9.00;;;;;4.26;81.09;98457.94;4920639;28;101943;-77
2022/12/30 06:35:59;;;;;;;;;9.50;7.00;;;;;4.26;81.03;98457.09;4917088;28;103357;-77
2022/12/30 06:38:25;;;;;;;;;8.50;8.50;;;;;4.40;80.79;98481.38;4914786;28;101540;-77
2022/12/30 06:40:53;;;;;;;;;11.00;10.50;;;;;4.44;81.07;98492.59;4910978;28;102284;-77
2022/12/30 06:43:19;;;;;;;;;10.25;9.50;;;;;4.42;81.43;98483.88;4925740;28;101859;-77
2022/12/30 06:45:46;;;;;;;;;6.50;6.50;;;;;4.48;81.01;98500.13;4911788;28;103421;-77
2022/12/30 06:48:13;;;;;;;;;10.50;10.50;;;;;4.41;80.99;98484.91;4919150;28;102009;-77
2022/12/30 06:50:40;;;;;;;;;11.00;10.50;;;;;4.54;80.43;98503.16;4913873;28;101821;-76
2022/12/30 06:53:07;;;;;;;;;4.00;2.00;;;;;4.42;80.79;98490.06;4924440;28;103049;-77
2022/12/30 06:55:35;;;;;;;;;13.00;10.00;;;;;4.59;80.63;98507.00;4920243;28;103322;-77
2022/12/30 06:58:03;;;;;;;;;11.75;8.50;;;;;4.50;80.46;98500.78;4908467;28;101805;-77
2022/12/30 07:00:31;;;;;;;;;16.25;11.25;;;;;4.64;80.59;98522.56;4916595;28;101562;-78
2022/12/30 07:02:58;;;;;;;;;9.50;9.00;;;;;4.36;81.04;98482.72;4923244;28;101945;-76
2022/12/30 07:05:25;;;;;;;;;15.25;12.00;;;;;4.62;80.67;98521.88;4919754;28;103958;-77
2022/12/30 07:07:52;;;;;;;;;12.00;11.50;;;;;4.70;81.40;98541.47;4919345;28;102096;-77
2022/12/30 07:10:19;;;;;;;;;15.75;13.00;;;;;4.70;81.51;98540.63;4920535;28;101921;-77
2022/12/30 07:12:46;;;;;;;;;12.75;12.00;;;;;4.59;81.19;98524.91;4927067;28;101844;-78
2022/12/30 07:15:13;;;;;;;;;11.00;10.25;;;;;4.49;80.99;98500.97;4912358;28;103605;-78
2022/12/30 07:17:40;;;;;;;;;11.50;10.75;;;;;4.76;81.28;98540.00;4915143;28;102029;-77
2022/12/30 07:20:08;;;;;;;;;9.25;8.25;;;;;4.69;81.41;98528.25;4916094;28;102063;-78
2022/12/30 07:22:35;;;;;;;;;13.00;10.00;;;;;4.76;81.71;98542.66;4917340;28;102027;-78
2022/12/30 07:25:02;;;;;;;;;11.75;9.25;;;;;4.77;81.81;98547.03;4927605;28;103450;-77
2022/12/30 07:27:29;;;;;;;;;14.25;11.50;;;;;4.77;81.66;98553.19;4929429;28;101894;-77
2022/12/30 07:29:56;;;;;;;;;15.50;13.00;;;;;4.74;81.75;98539.31;4926563;28;102530;-77
2022/12/30 07:32:23;;;;;;;;;16.25;15.00;;;;;4.78;81.62;98548.69;4930578;28;101800;-78
2022/12/30 07:34:50;;;;;;;;;13.50;11.00;;;;;4.85;81.84;98560.44;4915644;28;105029;-78
2022/12/30 07:37:17;;;;;;;;;12.25;10.00;;;;;4.86;81.90;98551.38;4905362;28;101822;-78
2022/12/30 07:39:44;;;;;;;;;15.00;10.25;;;;;4.89;81.49;98554.56;4910451;28;101760;-78
2022/12/30 07:42:11;;;;;;;;;13.75;11.50;;;;;4.82;81.34;98547.34;4929027;28;101857;-78
2022/12/30 07:44:38;;;;;;;;;18.25;13.75;;;;;4.83;81.46;98549.03;4908967;28;103391;-78
2022/12/30 07:47:05;;;;;;;;;10.25;10.00;;;;;4.96;81.29;98570.78;4928530;28;101804;-78
2022/12/30 07:49:32;;;;;;;;;8.25;6.00;;;;;4.98;81.82;98565.28;4928995;28;101298;-78
2022/12/30 07:51:59;;;;;;;;;13.00;12.00;;;;;4.91;81.75;98565.09;4928984;28;101574;-76
2022/12/30 07:54:26;;;;;;;;;11.00;8.00;;;;;5.00;81.52;98584.72;4917199;28;103351;-77
2022/12/30 07:56:53;;;;;;;;;11.50;11.00;;;;;5.02;81.68;98586.22;4930037;28;102041;-78
2022/12/30 07:59:20;;;;;;;;;15.00;14.50;;;;;4.93;81.81;98574.66;4926110;28;101811;-78
2022/12/30 08:01:47;;;;;;;;;18.50;13.00;;;;;4.96;81.63;98581.50;4918909;28;101726;-78
2022/12/30 08:04:14;;;;;;;;;15.00;14.00;;;;;4.91;81.65;98579.34;4918328;28;103210;-78
2022/12/30 08:07:01;;;;;;;;;21.50;16.00;;;;;5.03;81.69;98593.25;4921978;28;101576;-78
2022/12/30 08:09:28;;;;;;;;;16.00;13.25;;;;;5.08;81.87;98615.03;4910663;28;101952;-78
2022/12/30 08:11:55;;;;;;;;;24.50;19.75;;;;;5.09;81.67;98611.34;4922268;28;101616;-78
2022/12/30 08:14:22;;;;;;;;;20.00;18.50;;;;;5.11;81.98;98613.84;4916120;28;103479;-78
2022/12/30 08:16:49;;;;;;;;;23.00;18.75;;;;;5.16;81.42;98623.09;4922428;28;110660;-78
2022/12/30 08:19:16;;;;;;;;;25.25;23.25;;;;;5.22;81.77;98629.63;4927920;28;101819;-77
2022/12/30 08:21:43;;;;;;;;;19.00;17.25;;;;;5.17;81.09;98618.56;4913743;28;101975;-78
2022/12/30 08:24:10;;;;;;;;;21.00;18.00;;;;;5.29;81.26;98634.16;4924336;28;103353;-78
2022/12/30 08:26:37;;;;;;;;;19.25;13.00;;;;;5.33;80.88;98635.47;4924314;28;101716;-77
2022/12/30 08:29:04;;;;;;;;;21.00;14.00;;;;;5.39;80.72;98648.22;4922405;28;106821;-79
2022/12/30 08:31:31;;;;;;;;;14.00;13.50;;;;;5.44;80.67;98657.63;4923432;28;101820;-78
2022/12/30 08:33:59;;;;;;;;;18.00;14.75;;;;;5.48;80.50;98648.22;4930737;28;103708;-79
2022/12/30 08:36:27;;;;;;;;;21.50;16.50;;;;;5.57;80.52;98657.94;4928588;28;101769;-77
2022/12/30 08:38:58;;;;;;;;;20.25;14.25;;;;;5.64;80.25;98650.88;4910185;28;103618;-77
2022/12/30 08:41:29;;;;;;;;;16.50;15.50;;;;;5.73;79.75;98641.84;4928412;28;101692;-78
2022/12/30 08:43:57;;;;;;;;;16.75;15.50;;;;;5.90;79.67;98654.25;4907973;28;107965;-78
2022/12/30 08:46:26;;;;;;;;;19.25;17.00;;;;;5.99;78.93;98669.31;4912073;28;101985;-78
2022/12/30 08:48:53;;;;;;;;;12.25;11.75;;;;;6.11;78.27;98678.72;4923582;28;101745;-77
2022/12/30 08:51:20;;;;;;;;;15.50;14.75;;;;;6.24;77.74;98675.50;4912639;28;102050;-77
2022/12/30 08:53:48;;;;;;;;;28.00;21.75;;;;;6.34;78.66;98667.25;4927258;28;103391;-79
2022/12/30 08:56:18;;;;;;;;;17.25;15.75;;;;;6.47;77.87;98672.91;4914155;28;101925;-77
2022/12/30 08:58:45;;;;;;;;;21.50;18.50;;;;;6.51;77.07;98674.22;4927488;28;101533;-78
2022/12/30 09:01:17;;;;;;;;;26.25;20.00;;;;;6.56;76.40;98677.25;4927338;28;101836;-77
2022/12/30 09:03:45;;;;;;;;;26.25;19.25;;;;;6.51;77.38;98663.50;4926643;28;103570;-79
2022/12/30 09:06:14;;;;;;;;;29.00;24.50;;;;;6.63;76.74;98676.34;4925044;28;101886;-77
2022/12/30 09:08:41;;;;;;;;;22.50;18.75;;;;;6.69;76.33;98685.59;4927284;28;102072;-77
2022/12/30 09:11:14;;;;;;;;;36.75;30.25;;;;;6.54;77.47;98673.88;4924580;28;102593;-77
2022/12/30 09:13:41;;;;;;;;;23.00;20.75;;;;;6.71;76.84;98667.41;4927672;28;103398;-77
2022/12/30 09:16:12;;;;;;;;;22.75;18.00;;;;;6.83;76.19;98678.63;4913529;28;101896;-77
2022/12/30 09:18:40;;;;;;;;;18.00;14.25;;;;;6.88;75.85;98677.09;4926682;28;101796;-77
2022/12/30 09:21:07;;;;;;;;;17.50;15.75;;;;;6.93;75.48;98673.88;4906224;28;101988;-77
2022/12/30 09:23:35;;;;;;;;;21.00;16.00;;;;;6.96;75.78;98679.75;4905248;28;103390;-77
2022/12/30 09:26:04;;;;;;;;;23.75;17.75;;;;;7.09;75.78;98680.00;4924758;28;102037;-77
2022/12/30 09:28:31;;;;;;;;;24.00;20.50;;;;;7.18;75.69;98676.25;4929127;28;101507;-78
2022/12/30 09:30:59;;;;;;;;;22.00;16.50;;;;;7.23;74.98;98664.13;4904856;28;101936;-78
2022/12/30 09:33:26;;;;;;;;;12.50;10.75;;;;;7.39;74.80;98662.13;4930126;28;107944;-78
2022/12/30 09:35:53;;;;;;;;;25.00;18.00;;;;;7.49;74.28;98664.59;4930838;28;101906;-78
2022/12/30 09:38:20;;;;;;;;;16.00;13.50;;;;;7.55;73.69;98655.81;4916109;28;102570;-78
2022/12/30 09:40:59;;;;;;;;;15.25;13.25;;;;;7.72;73.69;98673.50;4915539;28;101897;-78
2022/12/30 09:43:37;;;;;;;;;17.00;16.50;;;;;7.78;74.25;98677.31;4920506;28;108100;-78
2022/12/30 09:46:18;;;;;;;;;20.00;17.25;;;;;7.77;73.66;98663.03;4884633;28;101994;-78
2022/12/30 09:48:54;;;;;;;;;18.00;14.75;;;;;7.82;73.03;98665.16;4887600;28;101737;-79
2022/12/30 09:51:27;;;;;;;;;12.75;10.00;;;;;7.75;73.82;98656.97;4895090;28;101568;-78
2022/12/30 09:54:10;;;;;;;;;16.25;12.00;;;;;7.82;72.46;98665.16;4883928;28;103390;-78
2022/12/30 09:56:40;;;;;;;;;14.25;12.50;;;;;7.76;73.79;98645.19;4888273;28;101784;-78
2022/12/30 09:59:20;;;;;;;;;16.75;12.75;;;;;7.79;72.87;98660.97;4890756;28;101832;-78
2022/12/30 10:01:58;;;;;;;;;26.50;25.00;;;;;7.57;73.74;98670.75;4894921;28;101577;-78
2022/12/30 10:04:34;;;;;;;;;14.50;14.50;;;;;7.71;73.71;98679.88;4891008;28;103422;-78
2022/12/30 10:07:23;;;;;;;;;24.00;23.00;;;;;7.63;73.46;98672.72;4892011;28;109366;-76
2022/12/30 10:10:00;;;;;;;;;36.75;29.25;;;;;7.58;74.26;98680.50;4892363;28;101733;-78
2022/12/30 10:12:43;;;;;;;;;25.00;22.25;;;;;7.67;74.38;98673.19;4892872;28;101732;-78
2022/12/30 10:15:19;;;;;;;;;15.75;14.50;;;;;7.81;72.74;98666.19;4888956;28;107819;-79
2022/12/30 10:18:08;;;;;;;;;18.75;14.00;;;;;7.93;72.76;98665.56;4891379;28;102085;-78
2022/12/30 10:21:00;;;;;;;;;18.00;14.00;;;;;8.00;72.11;98671.91;4889305;28;101688;-78
2022/12/30 10:23:51;;;;;;;;;14.25;13.00;;;;;8.07;72.67;98672.00;4890298;28;102523;-78
2022/12/30 10:26:22;;;;;;;;;17.75;14.00;;;;;8.10;71.47;98660.03;4878063;28;107748;-78
2022/12/30 10:28:58;;;;;;;;;23.75;20.00;;;;;8.01;72.34;98668.16;4893097;28;101806;-78
2022/12/30 10:31:29;;;;;;;;;24.75;19.75;;;;;8.07;71.81;98662.06;4901832;28;101689;-77
2022/12/30 10:34:08;;;;;;;;;14.75;13.00;;;;;8.16;72.55;98661.97;4893933;28;102012;-78
2022/12/30 10:36:40;;;;;;;;;19.50;19.00;;;;;8.21;71.89;98664.94;4889786;28;108010;-78
2022/12/30 10:39:24;;;;;;;;;18.75;13.50;;;;;8.06;72.10;98633.44;4895283;28;101879;-78
2022/12/30 10:41:57;;;;;;;;;26.25;19.50;;;;;8.24;71.47;98667.28;4890546;28;102023;-78
2022/12/30 10:44:40;;;;;;;;;20.00;16.25;;;;;8.25;71.69;98664.41;4901296;28;101696;-79
2022/12/30 10:47:54;;;;;;;;;20.00;16.75;;;;;8.29;70.94;98671.13;4919663;28;107891;-79
2022/12/30 10:50:30;;;;;;;;;12.75;11.00;;;;;8.39;70.66;98676.22;4888677;28;103803;-79
2022/12/30 10:53:00;;;;;;;;;15.00;14.50;;;;;8.42;71.00;98667.78;4914401;28;101885;-79
2022/12/30 10:55:31;;;;;;;;;13.50;11.25;;;;;8.46;71.07;98674.50;4930920;28;101871;-77
2022/12/30 10:58:05;;;;;;;;;21.50;18.75;;;;;8.30;71.28;98685.41;4917771;28;107769;-78
2022/12/30 11:00:34;;;;;;;;;27.00;22.25;;;;;8.36;72.34;98679.31;4924612;28;101908;-77
2022/12/30 11:03:17;;;;;;;;;17.00;16.50;;;;;8.54;71.26;98677.09;4930382;28;101577;-77
2022/12/30 11:05:45;;;;;;;;;27.75;24.25;;;;;8.17;71.12;98669.03;4893760;28;101901;-78
2022/12/30 11:08:25;;;;;;;;;27.00;21.25;;;;;8.23;71.89;98666.44;4918556;28;103509;-79
2022/12/30 11:11:10;;;;;;;;;20.75;15.25;;;;;8.40;70.80;98657.19;4909822;28;101840;-78
2022/12/30 11:16:44;;;;;;;;;17.50;13.50;;;;;8.47;70.95;98670.75;4835661;28;101978;-79
2022/12/30 11:19:24;;;;;;;;;10.25;10.25;;;;;8.43;70.89;98669.44;4849756;28;103629;-79
2022/12/30 11:21:54;;;;;;;;;11.00;9.50;;;;;8.52;70.53;98674.56;4884448;28;102041;-79
2022/12/30 11:24:22;;;;;;;;;23.50;19.00;;;;;8.41;70.21;98671.50;4911938;28;101617;-78
2022/12/30 11:26:50;;;;;;;;;26.75;21.00;;;;;8.51;70.77;98682.81;4918880;28;101972;-78
2022/12/30 11:29:20;;;;;;;;;22.75;20.50;;;;;8.47;70.33;98666.19;4923574;28;103490;-79
2022/12/30 11:31:52;;;;;;;;;16.25;14.00;;;;;8.61;70.38;98669.06;4906573;28;101716;-79
2022/12/30 11:34:31;;;;;;;;;26.75;21.75;;;;;8.50;70.25;98681.19;4928143;28;102274;-78
2022/12/30 11:37:00;;;;;;;;;17.25;14.25;;;;;8.61;70.08;98678.00;4906865;28;101808;-78
2022/12/30 11:39:32;;;;;;;;;14.50;12.25;;;;;8.70;69.10;98676.03;4906257;28;107314;-79
2022/12/30 11:42:01;;;;;;;;;13.25;12.50;;;;;8.66;69.33;98666.66;4914132;28;101813;-78
2022/12/30 11:44:32;;;;;;;;;14.00;9.50;;;;;8.79;68.83;98666.81;4928517;28;101659;-78
2022/12/30 11:47:11;;;;;;;;;12.00;9.25;;;;;8.75;68.72;98649.34;4929250;28;101996;-78
2022/12/30 11:49:48;;;;;;;;;19.25;15.75;;;;;8.78;69.39;98663.28;4928448;28;107858;-78
2022/12/30 11:52:20;;;;;;;;;26.00;23.75;;;;;8.73;69.02;98660.34;4914652;28;102103;-78
2022/12/30 11:54:57;;;;;;;;;14.25;12.50;;;;;8.85;69.10;98663.38;4920535;28;101769;-78
2022/12/30 11:57:38;;;;;;;;;25.25;20.50;;;;;8.77;69.12;98658.09;4930420;28;101724;-78
2022/12/30 12:00:12;;;;;;;;;19.75;16.50;;;;;8.94;68.91;98667.66;4925520;28;107666;-77
2022/12/30 12:02:45;;;;;;;;;18.50;16.25;;;;;9.03;68.57;98665.66;4913341;28;101539;-78
2022/12/30 12:05:42;;;;;;;;;12.50;11.00;;;;;9.12;68.17;98664.53;4929904;28;101686;-78
2022/12/30 12:09:10;;;;;;;;;11.25;9.25;;;;;9.20;67.69;98662.56;4904158;28;101842;-78
2022/12/30 12:11:43;;;;;;;;;15.75;9.50;;;;;9.31;67.07;98659.38;4863155;28;109226;-78
2022/12/30 12:14:30;;;;;;;;;11.00;10.00;;;;;9.29;66.92;98642.53;4926911;28;102074;-78
2022/12/30 12:17:33;;;;;;;;;13.00;13.00;;;;;9.41;66.71;98662.56;4907240;28;101935;-78
2022/12/30 12:20:06;;;;;;;;;11.75;10.00;;;;;9.40;66.47;98673.56;4922186;28;101584;-78
2022/12/30 12:22:50;;;;;;;;;18.75;16.75;;;;;9.44;66.92;98680.25;4907801;28;107952;-77
2022/12/30 12:25:21;;;;;;;;;12.50;9.50;;;;;9.38;66.16;98675.59;4927983;28;101919;-78
2022/12/30 12:27:53;;;;;;;;;9.25;5.00;;;;;9.31;66.33;98664.75;4928085;28;101824;-77
2022/12/30 12:30:20;;;;;;;;;9.75;8.50;;;;;9.40;67.34;98687.06;4927591;28;101778;-79
2022/12/30 12:33:11;;;;;;;;;9.75;9.25;;;;;9.43;66.83;98689.38;4928467;28;103445;-79
2022/12/30 12:35:43;;;;;;;;;8.75;8.25;;;;;9.43;67.31;98693.94;4922446;28;101677;-79
2022/12/30 12:38:43;;;;;;;;;10.00;9.00;;;;;9.35;66.79;98686.78;4918582;28;101679;-79